Algoma, Mississippi
Current Conditions -  °F | °C
As of 9:53 PM on Sunday 23 Nov 2014 (Local Time) from KTUP Reporting Station
Clear Clear  
Wind Chill: 14°   Ceiling: Unl
Heat Index: 14°   Visibility: 10mi
Dew Point: 13°   Wind: 7mph
Humidity: 90%   Direction: 180°S
Pressure: 29.55"   Gusts: NA
Location:  34.18°N, 89.03°W
Report Text: KTUP 240353Z 18006KT 10SM CLR 14/13 A2955 RMK AO2 SLP005 T01440128 $
Loading
Personal Weather Stations






























Interactive Weather Map New forecast layout! Learn more

10-Day Weather Forecast

Advertisements
Track Severe Weather on mobile